sensor_id;sensor_type;location;lat;lon;timestamp;P1;durP1;ratioP1;P2;durP2;ratioP2
74855;SDS011;63407;53.018;8.690;2022-09-21T04:01:18;2.15;;;1.17;;
74855;SDS011;63407;53.018;8.690;2022-09-21T04:03:44;1.65;;;1.25;;
74855;SDS011;63407;53.018;8.690;2022-09-21T04:06:10;4.22;;;1.02;;
74855;SDS011;63407;53.018;8.690;2022-09-21T04:08:37;1.25;;;1.00;;
74855;SDS011;63407;53.018;8.690;2022-09-21T04:11:09;1.40;;;0.93;;
74855;SDS011;63407;53.018;8.690;2022-09-21T04:13:36;3.22;;;1.23;;
74855;SDS011;63407;53.018;8.690;2022-09-21T04:16:01;2.25;;;0.90;;
74855;SDS011;63407;53.018;8.690;2022-09-21T04:18:27;2.38;;;1.27;;
74855;SDS011;63407;53.018;8.690;2022-09-21T04:20:52;1.20;;;1.00;;
74855;SDS011;63407;53.018;8.690;2022-09-21T04:23:18;2.80;;;1.42;;
74855;SDS011;63407;53.018;8.690;2022-09-21T04:25:44;3.22;;;1.13;;
74855;SDS011;63407;53.018;8.690;2022-09-21T04:28:12;1.98;;;1.10;;
74855;SDS011;63407;53.018;8.690;2022-09-21T04:30:38;2.25;;;1.00;;
74855;SDS011;63407;53.018;8.690;2022-09-21T04:33:04;2.40;;;1.02;;
74855;SDS011;63407;53.018;8.690;2022-09-21T04:35:30;2.13;;;1.10;;
74855;SDS011;63407;53.018;8.690;2022-09-21T04:37:55;2.97;;;0.85;;
74855;SDS011;63407;53.018;8.690;2022-09-21T04:40:21;1.25;;;1.10;;
74855;SDS011;63407;53.018;8.690;2022-09-21T04:42:56;2.00;;;0.88;;
74855;SDS011;63407;53.018;8.690;2022-09-21T04:45:22;2.53;;;1.00;;
74855;SDS011;63407;53.018;8.690;2022-09-21T04:47:48;1.63;;;1.10;;
74855;SDS011;63407;53.018;8.690;2022-09-21T04:50:14;3.95;;;1.15;;
74855;SDS011;63407;53.018;8.690;2022-09-21T04:52:39;1.08;;;0.90;;
74855;SDS011;63407;53.018;8.690;2022-09-21T04:55:06;1.95;;;1.08;;
74855;SDS011;63407;53.018;8.690;2022-09-21T04:57:32;1.23;;;1.00;;
74855;SDS011;63407;53.018;8.690;2022-09-21T04:59:58;2.10;;;1.20;;
74855;SDS011;63407;53.018;8.690;2022-09-21T05:02:23;1.10;;;1.00;;
74855;SDS011;63407;53.018;8.690;2022-09-21T05:04:49;2.05;;;1.05;;
74855;SDS011;63407;53.018;8.690;2022-09-21T05:07:15;2.20;;;1.10;;
74855;SDS011;63407;53.018;8.690;2022-09-21T05:09:40;1.45;;;1.10;;
74855;SDS011;63407;53.018;8.690;2022-09-21T05:12:24;1.88;;;1.13;;
74855;SDS011;63407;53.018;8.690;2022-09-21T05:14:50;2.20;;;1.00;;
74855;SDS011;63407;53.018;8.690;2022-09-21T05:17:15;2.05;;;0.90;;
74855;SDS011;63407;53.018;8.690;2022-09-21T05:19:41;2.05;;;1.27;;
74855;SDS011;63407;53.018;8.690;2022-09-21T05:22:06;2.30;;;1.08;;
74855;SDS011;63407;53.018;8.690;2022-09-21T05:24:31;2.65;;;1.20;;
74855;SDS011;63407;53.018;8.690;2022-09-21T05:26:57;1.35;;;1.00;;
74855;SDS011;63407;53.018;8.690;2022-09-21T05:29:23;1.90;;;1.10;;
74855;SDS011;63407;53.018;8.690;2022-09-21T05:31:50;1.45;;;1.10;;
74855;SDS011;63407;53.018;8.690;2022-09-21T05:34:30;1.20;;;0.85;;
74855;SDS011;63407;53.018;8.690;2022-09-21T05:40:20;2.25;;;1.02;;
74855;SDS011;63407;53.018;8.690;2022-09-21T05:42:46;2.45;;;1.00;;
74855;SDS011;63407;53.018;8.690;2022-09-21T05:45:12;1.95;;;1.05;;
74855;SDS011;63407;53.018;8.690;2022-09-21T05:47:53;1.25;;;0.93;;
74855;SDS011;63407;53.018;8.690;2022-09-21T05:55:56;1.10;;;0.95;;
74855;SDS011;63407;53.018;8.690;2022-09-21T06:03:40;3.38;;;1.30;;
74855;SDS011;63407;53.018;8.690;2022-09-21T06:06:07;2.13;;;1.17;;
74855;SDS011;63407;53.018;8.690;2022-09-21T06:08:33;1.13;;;1.00;;
74855;SDS011;63407;53.018;8.690;2022-09-21T06:10:59;3.10;;;1.15;;
74855;SDS011;63407;53.018;8.690;2022-09-21T06:13:25;1.35;;;1.25;;
74855;SDS011;63407;53.018;8.690;2022-09-21T06:15:51;1.98;;;1.38;;
74855;SDS011;63407;53.018;8.690;2022-09-21T06:18:18;1.67;;;1.20;;
74855;SDS011;63407;53.018;8.690;2022-09-21T06:20:43;2.17;;;1.40;;
74855;SDS011;63407;53.018;8.690;2022-09-21T06:23:09;1.65;;;1.02;;
74855;SDS011;63407;53.018;8.690;2022-09-21T06:25:37;1.92;;;1.20;;
74855;SDS011;63407;53.018;8.690;2022-09-21T06:28:06;1.45;;;1.27;;
74855;SDS011;63407;53.018;8.690;2022-09-21T06:30:34;1.63;;;1.10;;
74855;SDS011;63407;53.018;8.690;2022-09-21T06:33:00;2.90;;;1.27;;
74855;SDS011;63407;53.018;8.690;2022-09-21T06:35:27;4.13;;;1.48;;
74855;SDS011;63407;53.018;8.690;2022-09-21T06:37:57;2.88;;;1.20;;
74855;SDS011;63407;53.018;8.690;2022-09-21T06:40:24;3.13;;;1.40;;
74855;SDS011;63407;53.018;8.690;2022-09-21T06:42:53;1.15;;;1.00;;
74855;SDS011;63407;53.018;8.690;2022-09-21T06:45:20;1.80;;;1.10;;
74855;SDS011;63407;53.018;8.690;2022-09-21T06:47:45;2.63;;;1.42;;
74855;SDS011;63407;53.018;8.690;2022-09-21T06:50:12;2.05;;;1.02;;
74855;SDS011;63407;53.018;8.690;2022-09-21T06:52:38;2.28;;;1.20;;
74855;SDS011;63407;53.018;8.690;2022-09-21T06:55:05;3.13;;;1.00;;
74855;SDS011;63407;53.018;8.690;2022-09-21T06:57:30;2.65;;;1.30;;
74855;SDS011;63407;53.018;8.690;2022-09-21T06:59:56;3.67;;;1.20;;
74855;SDS011;63407;53.018;8.690;2022-09-21T07:02:21;3.40;;;1.20;;
74855;SDS011;63407;53.018;8.690;2022-09-21T07:04:47;2.28;;;1.40;;
74855;SDS011;63407;53.018;8.690;2022-09-21T07:07:12;2.40;;;1.13;;
74855;SDS011;63407;53.018;8.690;2022-09-21T07:09:38;2.70;;;1.17;;
74855;SDS011;63407;53.018;8.690;2022-09-21T07:12:03;2.72;;;1.40;;
74855;SDS011;63407;53.018;8.690;2022-09-21T07:14:32;3.45;;;1.30;;
74855;SDS011;63407;53.018;8.690;2022-09-21T07:16:57;3.22;;;1.35;;
74855;SDS011;63407;53.018;8.690;2022-09-21T07:19:23;3.67;;;1.40;;
74855;SDS011;63407;53.018;8.690;2022-09-21T07:21:51;2.83;;;1.20;;
74855;SDS011;63407;53.018;8.690;2022-09-21T07:24:18;2.03;;;1.30;;
74855;SDS011;63407;53.018;8.690;2022-09-21T07:26:43;3.28;;;1.45;;
74855;SDS011;63407;53.018;8.690;2022-09-21T07:29:09;4.50;;;1.45;;
74855;SDS011;63407;53.018;8.690;2022-09-21T07:31:34;2.65;;;1.20;;
74855;SDS011;63407;53.018;8.690;2022-09-21T07:34:00;2.10;;;1.17;;
74855;SDS011;63407;53.018;8.690;2022-09-21T07:36:25;4.80;;;1.30;;
74855;SDS011;63407;53.018;8.690;2022-09-21T07:38:51;3.47;;;1.00;;
74855;SDS011;63407;53.018;8.690;2022-09-21T07:41:18;2.50;;;1.15;;
74855;SDS011;63407;53.018;8.690;2022-09-21T07:43:43;4.72;;;1.98;;
74855;SDS011;63407;53.018;8.690;2022-09-21T07:46:10;8.15;;;2.75;;
74855;SDS011;63407;53.018;8.690;2022-09-21T07:48:37;1.25;;;1.00;;
74855;SDS011;63407;53.018;8.690;2022-09-21T07:51:03;2.55;;;1.00;;
74855;SDS011;63407;53.018;8.690;2022-09-21T07:53:31;2.58;;;1.00;;
74855;SDS011;63407;53.018;8.690;2022-09-21T07:56:04;2.45;;;1.05;;
74855;SDS011;63407;53.018;8.690;2022-09-21T07:58:31;2.97;;;1.58;;
74855;SDS011;63407;53.018;8.690;2022-09-21T08:01:16;4.68;;;2.08;;
74855;SDS011;63407;53.018;8.690;2022-09-21T08:03:42;2.40;;;1.60;;
74855;SDS011;63407;53.018;8.690;2022-09-21T08:06:07;4.82;;;2.20;;
74855;SDS011;63407;53.018;8.690;2022-09-21T08:08:33;4.28;;;3.03;;
74855;SDS011;63407;53.018;8.690;2022-09-21T08:11:05;3.30;;;1.90;;
74855;SDS011;63407;53.018;8.690;2022-09-21T08:13:32;3.90;;;2.17;;
74855;SDS011;63407;53.018;8.690;2022-09-21T08:15:59;3.90;;;2.10;;
74855;SDS011;63407;53.018;8.690;2022-09-21T08:18:26;4.45;;;2.20;;
74855;SDS011;63407;53.018;8.690;2022-09-21T08:20:56;4.00;;;2.10;;
74855;SDS011;63407;53.018;8.690;2022-09-21T08:23:22;5.50;;;2.00;;
74855;SDS011;63407;53.018;8.690;2022-09-21T08:25:48;4.15;;;1.98;;
74855;SDS011;63407;53.018;8.690;2022-09-21T08:28:13;3.25;;;2.00;;
74855;SDS011;63407;53.018;8.690;2022-09-21T08:30:39;2.38;;;1.73;;
74855;SDS011;63407;53.018;8.690;2022-09-21T08:33:06;3.47;;;1.95;;
74855;SDS011;63407;53.018;8.690;2022-09-21T08:35:33;4.07;;;1.98;;
74855;SDS011;63407;53.018;8.690;2022-09-21T08:37:59;4.07;;;1.60;;
74855;SDS011;63407;53.018;8.690;2022-09-21T08:40:25;3.55;;;1.60;;
74855;SDS011;63407;53.018;8.690;2022-09-21T08:45:38;3.10;;;1.67;;
74855;SDS011;63407;53.018;8.690;2022-09-21T08:48:09;5.68;;;2.22;;
74855;SDS011;63407;53.018;8.690;2022-09-21T08:50:45;4.03;;;1.80;;
74855;SDS011;63407;53.018;8.690;2022-09-21T08:53:21;2.85;;;1.80;;
74855;SDS011;63407;53.018;8.690;2022-09-21T08:55:55;4.10;;;1.92;;
74855;SDS011;63407;53.018;8.690;2022-09-21T08:58:28;3.30;;;1.77;;
74855;SDS011;63407;53.018;8.690;2022-09-21T09:07:03;2.95;;;1.38;;
74855;SDS011;63407;53.018;8.690;2022-09-21T09:16:02;4.70;;;1.63;;
74855;SDS011;63407;53.018;8.690;2022-09-21T09:20:57;2.17;;;1.17;;
74855;SDS011;63407;53.018;8.690;2022-09-21T09:23:44;5.90;;;1.40;;
74855;SDS011;63407;53.018;8.690;2022-09-21T09:26:16;2.28;;;1.17;;
74855;SDS011;63407;53.018;8.690;2022-09-21T09:31:47;3.13;;;1.73;;
74855;SDS011;63407;53.018;8.690;2022-09-21T09:36:50;4.57;;;1.02;;
74855;SDS011;63407;53.018;8.690;2022-09-21T09:39:21;4.38;;;1.35;;
74855;SDS011;63407;53.018;8.690;2022-09-21T09:41:57;6.20;;;1.00;;
74855;SDS011;63407;53.018;8.690;2022-09-21T09:44:41;3.45;;;1.00;;
74855;SDS011;63407;53.018;8.690;2022-09-21T09:52:30;2.95;;;0.90;;
74855;SDS011;63407;53.018;8.690;2022-09-21T09:54:57;3.03;;;1.10;;
74855;SDS011;63407;53.018;8.690;2022-09-21T09:57:28;4.28;;;1.20;;
74855;SDS011;63407;53.018;8.690;2022-09-21T09:59:59;3.63;;;1.20;;
74855;SDS011;63407;53.018;8.690;2022-09-21T10:02:47;2.35;;;0.90;;
74855;SDS011;63407;53.018;8.690;2022-09-21T10:05:21;4.47;;;1.20;;
74855;SDS011;63407;53.018;8.690;2022-09-21T10:07:51;3.33;;;0.90;;
74855;SDS011;63407;53.018;8.690;2022-09-21T10:12:47;3.30;;;0.93;;
74855;SDS011;63407;53.018;8.690;2022-09-21T10:15:15;4.05;;;1.00;;
74855;SDS011;63407;53.018;8.690;2022-09-21T10:17:44;3.97;;;0.95;;
74855;SDS011;63407;53.018;8.690;2022-09-21T10:20:17;1.63;;;0.80;;
74855;SDS011;63407;53.018;8.690;2022-09-21T10:22:45;4.47;;;1.23;;
74855;SDS011;63407;53.018;8.690;2022-09-21T10:25:17;2.10;;;1.02;;
74855;SDS011;63407;53.018;8.690;2022-09-21T10:27:46;2.28;;;0.80;;
74855;SDS011;63407;53.018;8.690;2022-09-21T10:32:55;3.42;;;1.05;;
74855;SDS011;63407;53.018;8.690;2022-09-21T10:35:22;2.30;;;1.20;;
74855;SDS011;63407;53.018;8.690;2022-09-21T10:38:07;2.40;;;0.90;;
74855;SDS011;63407;53.018;8.690;2022-09-21T10:40:35;1.17;;;0.70;;
74855;SDS011;63407;53.018;8.690;2022-09-21T10:43:02;1.95;;;0.80;;
74855;SDS011;63407;53.018;8.690;2022-09-21T10:45:29;3.03;;;1.00;;
74855;SDS011;63407;53.018;8.690;2022-09-21T10:48:15;1.63;;;0.70;;
74855;SDS011;63407;53.018;8.690;2022-09-21T10:50:46;3.22;;;0.73;;
74855;SDS011;63407;53.018;8.690;2022-09-21T10:53:22;3.17;;;1.33;;
74855;SDS011;63407;53.018;8.690;2022-09-21T10:58:28;1.65;;;0.70;;
74855;SDS011;63407;53.018;8.690;2022-09-21T11:00:55;2.65;;;0.70;;
74855;SDS011;63407;53.018;8.690;2022-09-21T11:03:36;2.20;;;0.90;;
74855;SDS011;63407;53.018;8.690;2022-09-21T11:06:20;4.25;;;0.77;;
74855;SDS011;63407;53.018;8.690;2022-09-21T11:08:55;2.63;;;0.75;;
74855;SDS011;63407;53.018;8.690;2022-09-21T11:11:40;4.03;;;1.20;;
74855;SDS011;63407;53.018;8.690;2022-09-21T11:17:19;1.60;;;0.77;;
74855;SDS011;63407;53.018;8.690;2022-09-21T11:23:20;1.58;;;0.80;;
74855;SDS011;63407;53.018;8.690;2022-09-21T11:28:56;2.25;;;1.10;;
74855;SDS011;63407;53.018;8.690;2022-09-21T11:31:28;1.40;;;0.75;;
74855;SDS011;63407;53.018;8.690;2022-09-21T11:34:12;2.97;;;0.90;;
74855;SDS011;63407;53.018;8.690;2022-09-21T11:37:01;1.75;;;1.00;;
74855;SDS011;63407;53.018;8.690;2022-09-21T11:48:10;1.92;;;1.10;;
74855;SDS011;63407;53.018;8.690;2022-09-21T11:59:29;2.00;;;0.70;;
74855;SDS011;63407;53.018;8.690;2022-09-21T12:04:46;3.45;;;0.93;;
74855;SDS011;63407;53.018;8.690;2022-09-21T12:09:53;1.65;;;0.80;;
74855;SDS011;63407;53.018;8.690;2022-09-21T12:12:42;0.65;;;0.65;;
74855;SDS011;63407;53.018;8.690;2022-09-21T12:15:30;1.85;;;0.95;;
74855;SDS011;63407;53.018;8.690;2022-09-21T12:18:19;2.50;;;0.85;;
74855;SDS011;63407;53.018;8.690;2022-09-21T12:26:31;2.17;;;0.60;;
74855;SDS011;63407;53.018;8.690;2022-09-21T12:29:03;0.88;;;0.65;;
74855;SDS011;63407;53.018;8.690;2022-09-21T12:31:41;2.47;;;0.85;;
74855;SDS011;63407;53.018;8.690;2022-09-21T12:34:29;0.98;;;0.60;;
74855;SDS011;63407;53.018;8.690;2022-09-21T12:39:50;2.08;;;0.70;;
74855;SDS011;63407;53.018;8.690;2022-09-21T12:44:52;1.35;;;0.50;;
74855;SDS011;63407;53.018;8.690;2022-09-21T12:47:42;1.80;;;0.52;;
74855;SDS011;63407;53.018;8.690;2022-09-21T12:50:29;1.33;;;0.60;;
74855;SDS011;63407;53.018;8.690;2022-09-21T12:53:01;1.38;;;0.70;;
74855;SDS011;63407;53.018;8.690;2022-09-21T12:55:33;1.90;;;0.93;;
74855;SDS011;63407;53.018;8.690;2022-09-21T13:03:49;1.70;;;0.77;;
74855;SDS011;63407;53.018;8.690;2022-09-21T13:09:29;1.40;;;0.88;;
74855;SDS011;63407;53.018;8.690;2022-09-21T13:12:00;2.30;;;0.60;;
74855;SDS011;63407;53.018;8.690;2022-09-21T13:14:32;2.00;;;0.68;;
74855;SDS011;63407;53.018;8.690;2022-09-21T13:17:01;0.93;;;0.50;;
74855;SDS011;63407;53.018;8.690;2022-09-21T13:19:29;1.88;;;0.75;;
74855;SDS011;63407;53.018;8.690;2022-09-21T13:24:46;1.30;;;0.50;;
74855;SDS011;63407;53.018;8.690;2022-09-21T13:35:50;0.98;;;0.50;;
74855;SDS011;63407;53.018;8.690;2022-09-21T13:38:21;0.80;;;0.50;;
74855;SDS011;63407;53.018;8.690;2022-09-21T13:40:48;1.40;;;0.43;;
74855;SDS011;63407;53.018;8.690;2022-09-21T13:43:20;1.73;;;0.68;;
74855;SDS011;63407;53.018;8.690;2022-09-21T13:45:49;3.10;;;0.90;;
74855;SDS011;63407;53.018;8.690;2022-09-21T13:48:26;2.00;;;0.73;;
74855;SDS011;63407;53.018;8.690;2022-09-21T13:50:56;2.72;;;0.90;;
74855;SDS011;63407;53.018;8.690;2022-09-21T13:53:28;3.33;;;0.65;;
74855;SDS011;63407;53.018;8.690;2022-09-21T13:56:01;2.95;;;0.90;;
74855;SDS011;63407;53.018;8.690;2022-09-21T13:58:41;1.58;;;0.60;;
74855;SDS011;63407;53.018;8.690;2022-09-21T14:01:17;3.65;;;0.57;;
74855;SDS011;63407;53.018;8.690;2022-09-21T14:03:53;3.00;;;0.75;;
74855;SDS011;63407;53.018;8.690;2022-09-21T14:06:25;3.22;;;0.70;;
74855;SDS011;63407;53.018;8.690;2022-09-21T14:11:32;2.25;;;0.70;;
74855;SDS011;63407;53.018;8.690;2022-09-21T14:18:58;2.10;;;0.80;;
74855;SDS011;63407;53.018;8.690;2022-09-21T14:21:28;0.63;;;0.43;;
74855;SDS011;63407;53.018;8.690;2022-09-21T14:26:42;3.65;;;0.68;;
74855;SDS011;63407;53.018;8.690;2022-09-21T14:29:23;2.10;;;0.80;;
74855;SDS011;63407;53.018;8.690;2022-09-21T14:31:53;2.78;;;1.15;;
74855;SDS011;63407;53.018;8.690;2022-09-21T14:34:24;3.70;;;0.80;;
74855;SDS011;63407;53.018;8.690;2022-09-21T14:36:55;1.67;;;0.60;;
74855;SDS011;63407;53.018;8.690;2022-09-21T14:39:34;1.90;;;0.70;;
74855;SDS011;63407;53.018;8.690;2022-09-21T14:42:06;0.80;;;0.60;;
74855;SDS011;63407;53.018;8.690;2022-09-21T14:44:39;1.23;;;0.60;;
74855;SDS011;63407;53.018;8.690;2022-09-21T14:55:58;3.00;;;0.88;;
74855;SDS011;63407;53.018;8.690;2022-09-21T15:01:40;3.15;;;0.70;;
74855;SDS011;63407;53.018;8.690;2022-09-21T15:04:24;3.25;;;0.88;;
74855;SDS011;63407;53.018;8.690;2022-09-21T15:13:14;4.70;;;0.98;;
74855;SDS011;63407;53.018;8.690;2022-09-21T15:16:00;3.15;;;0.70;;
74855;SDS011;63407;53.018;8.690;2022-09-21T15:18:46;3.85;;;0.80;;
74855;SDS011;63407;53.018;8.690;2022-09-21T15:21:18;2.63;;;0.85;;
74855;SDS011;63407;53.018;8.690;2022-09-21T15:23:46;2.33;;;0.80;;
74855;SDS011;63407;53.018;8.690;2022-09-21T15:26:17;1.60;;;0.60;;
74855;SDS011;63407;53.018;8.690;2022-09-21T15:28:48;2.75;;;0.70;;
74855;SDS011;63407;53.018;8.690;2022-09-21T15:31:18;2.55;;;0.90;;
74855;SDS011;63407;53.018;8.690;2022-09-21T15:33:44;3.60;;;0.82;;
74855;SDS011;63407;53.018;8.690;2022-09-21T15:36:19;1.23;;;0.60;;
74855;SDS011;63407;53.018;8.690;2022-09-21T15:38:47;0.77;;;0.68;;
74855;SDS011;63407;53.018;8.690;2022-09-21T15:41:57;3.03;;;0.75;;
74855;SDS011;63407;53.018;8.690;2022-09-21T15:44:17;2.58;;;0.93;;
74855;SDS011;63407;53.018;8.690;2022-09-21T15:46:46;2.58;;;0.90;;
74855;SDS011;63407;53.018;8.690;2022-09-21T15:49:15;1.95;;;0.60;;
74855;SDS011;63407;53.018;8.690;2022-09-21T15:51:45;2.80;;;0.80;;
74855;SDS011;63407;53.018;8.690;2022-09-21T15:56:53;2.67;;;0.90;;
74855;SDS011;63407;53.018;8.690;2022-09-21T15:59:19;1.98;;;0.80;;
74855;SDS011;63407;53.018;8.690;2022-09-21T16:01:47;4.65;;;0.80;;
74855;SDS011;63407;53.018;8.690;2022-09-21T16:04:17;3.67;;;0.82;;
74855;SDS011;63407;53.018;8.690;2022-09-21T16:07:21;4.13;;;1.00;;
74855;SDS011;63407;53.018;8.690;2022-09-21T16:09:47;2.70;;;0.73;;
74855;SDS011;63407;53.018;8.690;2022-09-21T16:15:15;2.80;;;0.75;;
74855;SDS011;63407;53.018;8.690;2022-09-21T16:17:52;2.15;;;0.70;;
74855;SDS011;63407;53.018;8.690;2022-09-21T16:23:13;3.25;;;0.80;;
74855;SDS011;63407;53.018;8.690;2022-09-21T16:25:53;2.08;;;0.80;;
74855;SDS011;63407;53.018;8.690;2022-09-21T16:30:53;2.83;;;0.80;;
74855;SDS011;63407;53.018;8.690;2022-09-21T16:33:37;1.65;;;0.60;;
74855;SDS011;63407;53.018;8.690;2022-09-21T16:38:58;2.58;;;0.77;;
74855;SDS011;63407;53.018;8.690;2022-09-21T16:41:28;2.60;;;0.70;;
74855;SDS011;63407;53.018;8.690;2022-09-21T16:44:04;2.97;;;0.85;;
74855;SDS011;63407;53.018;8.690;2022-09-21T16:46:32;4.75;;;0.98;;
74855;SDS011;63407;53.018;8.690;2022-09-21T16:48:59;4.82;;;1.02;;
74855;SDS011;63407;53.018;8.690;2022-09-21T16:51:25;6.10;;;0.70;;
74855;SDS011;63407;53.018;8.690;2022-09-21T16:53:51;5.03;;;1.13;;
74855;SDS011;63407;53.018;8.690;2022-09-21T16:56:17;4.28;;;1.00;;
74855;SDS011;63407;53.018;8.690;2022-09-21T16:58:42;5.60;;;1.08;;
74855;SDS011;63407;53.018;8.690;2022-09-21T17:01:10;3.80;;;1.17;;
74855;SDS011;63407;53.018;8.690;2022-09-21T17:03:40;1.48;;;0.88;;
74855;SDS011;63407;53.018;8.690;2022-09-21T17:06:11;6.40;;;0.95;;
74855;SDS011;63407;53.018;8.690;2022-09-21T17:08:39;2.92;;;0.80;;
74855;SDS011;63407;53.018;8.690;2022-09-21T17:11:05;5.82;;;0.80;;
74855;SDS011;63407;53.018;8.690;2022-09-21T17:13:30;5.53;;;1.10;;
74855;SDS011;63407;53.018;8.690;2022-09-21T17:15:56;3.80;;;0.90;;
74855;SDS011;63407;53.018;8.690;2022-09-21T17:18:22;2.22;;;0.65;;
74855;SDS011;63407;53.018;8.690;2022-09-21T17:20:48;5.07;;;1.23;;
74855;SDS011;63407;53.018;8.690;2022-09-21T17:23:13;4.93;;;1.15;;
74855;SDS011;63407;53.018;8.690;2022-09-21T17:25:39;4.60;;;1.02;;
74855;SDS011;63407;53.018;8.690;2022-09-21T17:28:15;2.45;;;0.80;;
74855;SDS011;63407;53.018;8.690;2022-09-21T17:30:47;4.40;;;1.23;;
74855;SDS011;63407;53.018;8.690;2022-09-21T17:33:13;5.05;;;1.02;;
74855;SDS011;63407;53.018;8.690;2022-09-21T17:35:42;4.25;;;0.90;;
74855;SDS011;63407;53.018;8.690;2022-09-21T17:38:07;5.00;;;0.88;;
74855;SDS011;63407;53.018;8.690;2022-09-21T17:40:33;6.90;;;0.80;;
74855;SDS011;63407;53.018;8.690;2022-09-21T17:43:45;3.88;;;0.90;;
74855;SDS011;63407;53.018;8.690;2022-09-21T17:46:11;1.77;;;0.80;;
74855;SDS011;63407;53.018;8.690;2022-09-21T17:48:45;4.10;;;1.08;;
74855;SDS011;63407;53.018;8.690;2022-09-21T17:51:11;5.38;;;0.90;;
74855;SDS011;63407;53.018;8.690;2022-09-21T17:54:00;5.55;;;1.25;;
74855;SDS011;63407;53.018;8.690;2022-09-21T17:59:38;3.53;;;0.90;;
74855;SDS011;63407;53.018;8.690;2022-09-21T18:02:37;3.70;;;0.90;;
74855;SDS011;63407;53.018;8.690;2022-09-21T18:05:00;3.40;;;0.93;;
74855;SDS011;63407;53.018;8.690;2022-09-21T18:07:28;3.03;;;0.82;;
74855;SDS011;63407;53.018;8.690;2022-09-21T18:09:54;3.47;;;0.75;;
74855;SDS011;63407;53.018;8.690;2022-09-21T18:15:20;2.08;;;0.80;;
74855;SDS011;63407;53.018;8.690;2022-09-21T18:17:58;3.53;;;1.02;;
74855;SDS011;63407;53.018;8.690;2022-09-21T18:20:36;5.30;;;0.90;;
74855;SDS011;63407;53.018;8.690;2022-09-21T18:23:28;6.20;;;1.00;;
74855;SDS011;63407;53.018;8.690;2022-09-21T18:25:59;6.40;;;1.45;;
74855;SDS011;63407;53.018;8.690;2022-09-21T18:28:35;7.43;;;1.50;;
74855;SDS011;63407;53.018;8.690;2022-09-21T18:31:19;4.95;;;1.20;;
74855;SDS011;63407;53.018;8.690;2022-09-21T18:36:59;8.45;;;1.77;;
74855;SDS011;63407;53.018;8.690;2022-09-21T18:42:45;5.30;;;1.35;;
74855;SDS011;63407;53.018;8.690;2022-09-21T18:44:54;7.13;;;1.33;;
74855;SDS011;63407;53.018;8.690;2022-09-21T18:50:40;6.63;;;1.38;;
74855;SDS011;63407;53.018;8.690;2022-09-21T18:53:26;6.65;;;1.50;;
74855;SDS011;63407;53.018;8.690;2022-09-21T18:56:10;7.05;;;1.77;;
74855;SDS011;63407;53.018;8.690;2022-09-21T18:58:37;6.75;;;1.10;;
74855;SDS011;63407;53.018;8.690;2022-09-21T19:01:04;6.13;;;1.23;;
74855;SDS011;63407;53.018;8.690;2022-09-21T19:03:30;4.28;;;1.52;;
74855;SDS011;63407;53.018;8.690;2022-09-21T19:11:30;6.40;;;1.25;;
74855;SDS011;63407;53.018;8.690;2022-09-21T19:14:05;4.88;;;1.67;;
74855;SDS011;63407;53.018;8.690;2022-09-21T19:16:48;5.05;;;1.13;;
74855;SDS011;63407;53.018;8.690;2022-09-21T19:22:37;3.17;;;1.10;;
74855;SDS011;63407;53.018;8.690;2022-09-21T19:31:09;5.18;;;1.55;;
74855;SDS011;63407;53.018;8.690;2022-09-21T19:33:36;4.85;;;1.00;;
74855;SDS011;63407;53.018;8.690;2022-09-21T19:36:02;9.57;;;1.25;;
74855;SDS011;63407;53.018;8.690;2022-09-21T19:38:29;3.88;;;1.52;;
74855;SDS011;63407;53.018;8.690;2022-09-21T19:40:58;4.40;;;0.90;;
74855;SDS011;63407;53.018;8.690;2022-09-21T19:43:41;4.55;;;1.38;;
74855;SDS011;63407;53.018;8.690;2022-09-21T19:46:23;7.25;;;1.10;;
74855;SDS011;63407;53.018;8.690;2022-09-21T19:49:07;5.13;;;1.42;;
74855;SDS011;63407;53.018;8.690;2022-09-21T19:51:52;5.93;;;1.23;;
74855;SDS011;63407;53.018;8.690;2022-09-21T19:54:23;4.45;;;1.35;;
74855;SDS011;63407;53.018;8.690;2022-09-21T19:57:20;4.60;;;1.23;;
74855;SDS011;63407;53.018;8.690;2022-09-21T20:00:09;8.18;;;1.30;;
74855;SDS011;63407;53.018;8.690;2022-09-21T20:11:38;4.25;;;1.17;;
74855;SDS011;63407;53.018;8.690;2022-09-21T20:16:49;4.20;;;0.88;;
74855;SDS011;63407;53.018;8.690;2022-09-21T20:22:11;4.10;;;1.00;;
74855;SDS011;63407;53.018;8.690;2022-09-21T20:24:50;6.60;;;1.60;;
74855;SDS011;63407;53.018;8.690;2022-09-21T20:27:32;6.18;;;1.27;;
74855;SDS011;63407;53.018;8.690;2022-09-21T20:30:04;4.10;;;1.20;;
74855;SDS011;63407;53.018;8.690;2022-09-21T20:32:32;5.30;;;1.10;;
74855;SDS011;63407;53.018;8.690;2022-09-21T20:34:59;6.03;;;0.90;;
74855;SDS011;63407;53.018;8.690;2022-09-21T20:37:24;5.75;;;1.00;;
74855;SDS011;63407;53.018;8.690;2022-09-21T20:39:51;5.90;;;1.30;;
74855;SDS011;63407;53.018;8.690;2022-09-21T20:42:18;6.63;;;1.30;;
74855;SDS011;63407;53.018;8.690;2022-09-21T20:44:48;4.88;;;1.40;;
74855;SDS011;63407;53.018;8.690;2022-09-21T20:47:14;3.60;;;1.30;;
74855;SDS011;63407;53.018;8.690;2022-09-21T20:49:39;4.68;;;1.10;;
74855;SDS011;63407;53.018;8.690;2022-09-21T20:52:05;4.65;;;0.80;;
74855;SDS011;63407;53.018;8.690;2022-09-21T20:54:33;5.85;;;1.20;;
74855;SDS011;63407;53.018;8.690;2022-09-21T20:56:58;4.18;;;1.02;;
74855;SDS011;63407;53.018;8.690;2022-09-21T20:59:24;5.25;;;1.20;;
